Ottumwa, IA (52501)

9:47 AM CDT on March 25, 2017 (GMT -0500)
East | | Change Station

Elev 833 ft 41.03 °N, 92.40 °W | Updated 56 seconds ago

Rain
Rain
42.4 °F
Feels Like 36 °F
N
11.0
Wind Variable Wind from NNE
Gusts 15.0 mph

Today
High -- | Low -- °F
--% Chance of Precip.
Yesterday
High -- | Low -- °F
Precip. -- in
Pressure 29.90 in
Visibility 4.0 miles
Clouds Overcast 500 ft
Windchill 36 °F
Dew Point 41 °F
Humidity 96%
Rainfall 0.51 in
Snow Depth Not available.
7:03 AM 7:27 PM
Waning Crescent, 8% visible
SPECI KOTM 251418Z AUTO 05015KT 4SM -RA BR OVC005 06/06 A2990 RMK AO2 P0002 T00610061
Pressure 29.90 in
Visibility 4.0 miles
Clouds Overcast 500 ft
Windchill 36 °F
Dew Point 41 °F
Humidity 96%
Rainfall 0.51 in
Snow Depth Not available.
7:03 AM 7:27 PM
Waning Crescent, 8% visible
SPECI KOTM 251418Z AUTO 05015KT 4SM -RA BR OVC005 06/06 A2990 RMK AO2 P0002 T00610061

Get Severe Weather Alerts

Thanks for signing up!

Be on the lookout for a verification email in your inbox.

You'll start receiving the daily forecast at 8 AM.

×

10-Day Weather Forecast

Almanac

Astronomy

Mar. 25, 2017 Rise Set
Actual Time
Civil Twilight
Nautical Twilight
Astronomical Twilight
Moon
Length of Visible Light
Length of Day
Tomorrow will be .
, % of the Moon is Illuminated

Today's Extremes

State Highs State Lows

Community

WunderPhotos

Upload Photos

1,962,540 photos uploaded!

WunderBlog® & News

Nearby

Air Quality

  Air Quality AQ Index Pollutant
Not available.

Snow Depth

Station Depth Elevation

Earthquake Activity

City Distance Mag. Time & Date
Minimum magnitude displayed is 2.5.

Earthquake Activity

City Distance Mag. Time & Date
Minimum magnitude displayed is 2.5.

Coastal Water Temperatures

Place Temperature

Stations

Nearby Weather Stations

Station Location Temp. Windchill Dew Point Humidity Wind Precip. Elev Updated Type
                   

Watches & Warnings

There are currently no watches in effect.